This is the latest recevied weather packets stored in our database for station/object M0HPP-13. If no packets are shown the sender has not sent any weather packets the latest 10 day(s).
| Time | Temp. | Humidity | Pressure | Rain* | Wind** | Luminosity | Snow |
|---|---|---|---|---|---|---|---|
| 1788628086 | 13.89° C | 73% | 1017.8 hPa | 0 mm | - | 80 W/m² | - |
| 1788627486 | 14.44° C | 72% | 1017.8 hPa | 0 mm | - | 104 W/m² | - |
| 1788626886 | 15° C | 70% | 1017.7 hPa | 0 mm | - | 122 W/m² | - |
| 1788626286 | 15.56° C | 67% | 1017.8 hPa | 0 mm | - | 183 W/m² | - |
| 1788625686 | 15.56° C | 67% | 1018 hPa | 0 mm | - | 231 W/m² | - |
| 1788625086 | 15° C | 70% | 1017.9 hPa | 0 mm | - | 238 W/m² | - |
| 1788624486 | 14.44° C | 70% | 1017.7 hPa | 0 mm | - | 165 W/m² | - |
| 1788623886 | 15° C | 70% | 1017.6 hPa | 0 mm | - | 193 W/m² | - |
| 1788623286 | 15° C | 70% | 1017.5 hPa | 0 mm | - | 161 W/m² | - |
| 1788622686 | 14.44° C | 70% | 1017.4 hPa | 0 mm | - | 168 W/m² | - |
| 1788622086 | 15° C | 68% | 1017.2 hPa | 0 mm | - | 129 W/m² | - |
| 1788621486 | 15.56° C | 68% | 1017.2 hPa | 0 mm | - | 287 W/m² | - |
| 1788620886 | 15.56° C | 71% | 1017.2 hPa | 0 mm | - | 257 W/m² | - |
| 1788620286 | 15° C | 73% | 1017.2 hPa | 0 mm | - | 254 W/m² | - |
| 1788619686 | 16.11° C | 69% | 1017.2 hPa | 0 mm | - | 266 W/m² | - |
| 1788619086 | 15° C | 69% | 1017.2 hPa | 0 mm | - | 273 W/m² | - |
| 1788618486 | 15° C | 69% | 1017.1 hPa | 0 mm | - | 220 W/m² | - |
| 1788617886 | 16.11° C | 68% | 1017 hPa | 0 mm | - | 250 W/m² | - |
| 1788617297 | 15.56° C | 69% | 1017 hPa | 0 mm | - | 338 W/m² | - |
| 1788616686 | 15.56° C | 69% | 1017.1 hPa | 0 mm | - | 322 W/m² | - |
| 1788616086 | 14.44° C | 73% | 1017.2 hPa | 0 mm | - | 370 W/m² | - |
| 1788615486 | 14.44° C | 72% | 1017.1 hPa | 0 mm | - | 182 W/m² | - |
| 1788614886 | 14.44° C | 71% | 1017.1 hPa | 0 mm | - | 222 W/m² | - |
| 1788614286 | 14.44° C | 68% | 1017 hPa | 0 mm | - | 211 W/m² | - |
| 1788613686 | 16.11° C | 62% | 1016.5 hPa | 0 mm | - | 381 W/m² | - |
* Rain latest hour (hover to see other rain measurements)
** Current wind speed in m/s (hover to see current wind gust speed)